Time;durP1;ratioP1;P1;durP2;ratioP2;P2;SDS_P1;SDS_P2;PMS_P1;PMS_P2;Temp;Humidity;BMP_temperature;BMP_pressure;BME280_temperature;BME280_humidity;BME280_pressure;Samples;Min_cycle;Max_cycle;Signal;HPM_P1;HPM_P2
2022/07/14 00:03:51;;;;;;;1.70;0.57;;;21.00;99.90;;;;;;20897817;23;20105;-74
2022/07/14 00:13:52;;;;;;;1.37;0.60;;;20.70;99.90;;;;;;20992146;28;20032;-75
2022/07/14 00:23:53;;;;;;;0.50;0.45;;;20.60;99.90;;;;;;20991249;28;20052;-75
2022/07/14 00:33:54;;;;;;;2.67;0.70;;;20.60;99.90;;;;;;20990284;28;20040;-76
2022/07/14 00:43:55;;;;;;;2.33;0.60;;;20.40;99.90;;;;;;20990218;28;20444;-75
2022/07/14 00:53:56;;;;;;;0.87;0.70;;;20.40;99.90;;;;;;20989846;28;20456;-75
2022/07/14 01:03:56;;;;;;;6.67;0.70;;;20.20;99.90;;;;;;20971576;28;20082;-75
2022/07/14 01:14:02;;;;;;;7.33;0.70;;;20.30;99.90;;;;;;20971104;28;20119;-75
2022/07/14 01:24:03;;;;;;;3.17;0.90;;;19.70;99.90;;;;;;20971196;28;20175;-75
2022/07/14 01:34:04;;;;;;;1.47;0.60;;;20.00;99.90;;;;;;20970391;28;20056;-75
2022/07/14 01:44:05;;;;;;;5.63;0.60;;;19.70;99.90;;;;;;20996020;28;20066;-75
2022/07/14 01:54:06;;;;;;;0.95;0.65;;;19.70;99.90;;;;;;20985205;28;20040;-75
2022/07/14 02:04:12;;;;;;;2.92;0.98;;;19.80;99.90;;;;;;20984307;28;20431;-75
2022/07/14 02:14:13;;;;;;;2.35;0.70;;;19.70;99.90;;;;;;21001672;28;20043;-75
2022/07/14 02:24:14;;;;;;;0.80;0.60;;;19.20;99.90;;;;;;20982970;28;20124;-75
2022/07/14 02:34:16;;;;;;;1.73;0.60;;;19.10;99.90;;;;;;20982704;28;20060;-76
2022/07/14 02:44:17;;;;;;;3.10;1.00;;;19.40;99.90;;;;;;20999389;28;20028;-75
2022/07/14 02:54:19;;;;;;;1.42;0.80;;;19.30;99.90;;;;;;20963690;28;20044;-76
2022/07/14 03:04:22;;;;;;;1.45;0.70;;;19.10;99.90;;;;;;20979318;28;20044;-75
2022/07/14 03:14:25;;;;;;;3.10;1.10;;;18.70;99.90;;;;;;20978194;28;20047;-75
2022/07/14 03:24:26;;;;;;;6.90;0.60;;;18.90;99.90;;;;;;20977642;28;20520;-75
2022/07/14 03:34:29;;;;;;;2.88;0.88;;;19.00;99.90;;;;;;20977320;28;20540;-75
2022/07/14 03:44:30;;;;;;;1.20;0.80;;;19.10;99.90;;;;;;20976382;28;20120;-75
2022/07/14 03:54:31;;;;;;;4.33;0.97;;;18.80;99.90;;;;;;20965175;28;20068;-76
2022/07/14 04:04:32;;;;;;;1.17;0.70;;;19.00;99.90;;;;;;20973418;28;20381;-75
2022/07/14 04:14:33;;;;;;;1.13;0.60;;;19.20;99.90;;;;;;20990593;28;20036;-75
2022/07/14 04:24:36;;;;;;;0.80;0.50;;;19.70;99.90;;;;;;20972931;28;20094;-76
2022/07/14 04:34:38;;;;;;;1.17;0.40;;;19.80;99.90;;;;;;20972515;28;20408;-76
2022/07/14 04:44:41;;;;;;;3.67;1.10;;;20.10;99.90;;;;;;20986932;28;20032;-75
2022/07/14 04:54:42;;;;;;;3.42;1.17;;;20.10;99.90;;;;;;20949226;28;20416;-75
2022/07/14 05:04:47;;;;;;;1.90;0.95;;;19.90;99.90;;;;;;20971322;28;20458;-76
2022/07/14 05:14:48;;;;;;;3.47;1.00;;;19.80;99.90;;;;;;20909806;28;20029;-74
2022/07/14 05:24:51;;;;;;;3.88;1.33;;;19.20;99.90;;;;;;20902456;28;20107;-76
2022/07/14 05:34:54;;;;;;;2.00;1.38;;;19.50;99.90;;;;;;20888533;28;20064;-76
2022/07/14 05:44:56;;;;;;;1.40;0.90;;;19.70;99.90;;;;;;20985478;28;20041;-75
2022/07/14 05:55:01;;;;;;;1.87;1.27;;;20.20;99.90;;;;;;20984901;28;20041;-75
2022/07/14 06:05:03;;;;;;;1.55;1.00;;;21.10;99.90;;;;;;20971915;22;20069;-80
2022/07/14 06:15:05;;;;;;;4.20;1.17;;;21.80;99.90;;;;;;20918938;28;20407;-80
2022/07/14 06:25:08;;;;;;;3.55;1.02;;;22.50;99.90;;;;;;20917876;28;20064;-79
2022/07/14 06:35:11;;;;;;;2.83;0.95;;;23.00;99.90;;;;;;20920073;28;20524;-79
2022/07/14 06:45:13;;;;;;;1.83;0.90;;;23.60;99.90;;;;;;20918566;28;20087;-79
2022/07/14 06:55:13;;;;;;;8.85;1.05;;;23.70;99.90;;;;;;20918981;28;20033;-80
2022/07/14 07:15:38;;;;;;;3.83;1.40;;;24.90;99.90;;;;;;20937473;28;20280;-80
2022/07/14 07:25:39;;;;;;;3.63;0.90;;;25.50;99.90;;;;;;20917446;28;20040;-79
2022/07/14 07:35:42;;;;;;;1.20;0.80;;;26.20;99.90;;;;;;20937340;28;20072;-79
2022/07/14 07:45:43;;;;;;;1.92;1.00;;;26.70;99.90;;;;;;20936283;28;20128;-80
2022/07/14 07:55:44;;;;;;;2.30;0.90;;;27.30;99.90;;;;;;20914390;28;20046;-80
2022/07/14 08:05:45;;;;;;;5.95;0.80;;;27.80;99.90;;;;;;20933715;28;20045;-80
2022/07/14 08:15:46;;;;;;;4.55;1.00;;;27.60;99.90;;;;;;20911955;28;20408;-81
2022/07/14 08:25:47;;;;;;;1.38;0.80;;;28.80;99.90;;;;;;20935605;28;20131;-80
2022/07/14 08:35:48;;;;;;;1.55;1.08;;;28.90;99.90;;;;;;20934385;28;20060;-81
2022/07/14 08:45:50;;;;;;;2.20;1.00;;;29.90;99.90;;;;;;20935189;28;20036;-80
2022/07/14 08:55:51;;;;;;;1.30;0.70;;;30.10;99.90;;;;;;20935900;28;20044;-80
2022/07/14 09:05:53;;;;;;;1.08;0.60;;;31.00;99.00;;;;;;20915445;28;20041;-80
2022/07/14 09:16:22;;;;;;;0.98;0.60;;;31.10;96.50;;;;;;20932105;28;20390;-79
2022/07/14 09:26:24;;;;;;;7.97;0.80;;;30.90;96.10;;;;;;20929980;28;20041;-80
2022/07/14 09:36:36;;;;;;;1.65;0.68;;;30.90;96.90;;;;;;20910761;28;20104;-80
2022/07/14 09:46:54;;;;;;;1.52;0.80;;;30.90;96.00;;;;;;20929209;28;20443;-80
2022/07/14 09:56:55;;;;;;;2.47;0.55;;;31.60;93.40;;;;;;20910113;28;20037;-79
2022/07/14 10:06:56;;;;;;;1.58;0.50;;;32.30;94.90;;;;;;20940179;28;20497;-80
2022/07/14 10:16:58;;;;;;;1.85;0.63;;;33.20;91.50;;;;;;20926521;28;20041;-80
2022/07/14 10:27:00;;;;;;;0.70;0.52;;;33.30;90.60;;;;;;20941152;28;20049;-80
2022/07/14 10:37:17;;;;;;;1.58;0.80;;;33.50;91.90;;;;;;20921277;28;20162;-79
2022/07/14 10:47:19;;;;;;;2.13;0.68;;;34.20;91.00;;;;;;20939493;28;20413;-80
2022/07/14 10:57:20;;;;;;;1.42;0.70;;;34.50;90.90;;;;;;20937606;28;20073;-81
2022/07/14 11:07:51;;;;;;;2.75;0.80;;;33.00;90.50;;;;;;20902647;28;20405;-80
2022/07/14 11:17:51;;;;;;;4.17;1.00;;;33.60;89.80;;;;;;20903173;28;20040;-80
2022/07/14 11:27:52;;;;;;;1.95;1.10;;;34.20;90.70;;;;;;20936831;28;20283;-79
2022/07/14 11:37:57;;;;;;;1.45;0.93;;;34.40;87.10;;;;;;20917077;28;20113;-80
2022/07/14 11:47:58;;;;;;;2.03;0.88;;;35.20;89.10;;;;;;20916915;28;20087;-80
2022/07/14 11:58:00;;;;;;;1.08;0.77;;;34.90;86.30;;;;;;20934746;28;20112;-79
2022/07/14 12:08:02;;;;;;;1.40;0.90;;;35.10;84.80;;;;;;20884960;23;20394;-75
2022/07/14 12:18:04;;;;;;;3.28;0.90;;;35.30;85.50;;;;;;20829651;28;20052;-75
2022/07/14 12:28:09;;;;;;;2.70;0.75;;;34.10;85.30;;;;;;20828969;28;20041;-75
2022/07/14 12:38:12;;;;;;;1.77;0.80;;;35.00;83.30;;;;;;20828659;28;20041;-74
2022/07/14 12:48:13;;;;;;;2.25;1.05;;;33.40;85.60;;;;;;20827007;28;20041;-75
2022/07/14 12:58:15;;;;;;;1.90;0.80;;;34.30;87.10;;;;;;20828909;28;20523;-75
2022/07/14 13:08:28;;;;;;;1.17;0.90;;;34.00;82.60;;;;;;20829176;28;20056;-74
2022/07/14 13:18:29;;;;;;;0.85;0.80;;;34.00;81.80;;;;;;20824356;28;20037;-75
2022/07/14 13:28:38;;;;;;;5.45;0.70;;;33.60;83.60;;;;;;20823709;28;20041;-75
2022/07/14 13:38:40;;;;;;;2.60;0.90;;;34.90;80.60;;;;;;20830874;28;20044;-75
2022/07/14 13:48:41;;;;;;;2.28;0.90;;;35.50;81.70;;;;;;20838641;28;20085;-75
2022/07/14 13:58:42;;;;;;;1.02;0.70;;;34.80;79.10;;;;;;20837947;28;20040;-75
2022/07/14 14:08:43;;;;;;;1.42;0.73;;;34.40;78.30;;;;;;20837125;28;20041;-75
2022/07/14 14:18:44;;;;;;;2.47;0.70;;;34.70;80.30;;;;;;20836276;28;20033;-75
2022/07/14 14:28:45;;;;;;;1.23;0.60;;;34.70;80.70;;;;;;20835332;28;20090;-75
2022/07/14 14:38:46;;;;;;;3.25;0.82;;;35.00;80.30;;;;;;20825323;28;20040;-75
2022/07/14 14:48:47;;;;;;;3.83;0.80;;;34.40;80.90;;;;;;20812455;28;20045;-75
2022/07/14 14:58:48;;;;;;;2.37;0.70;;;34.50;81.40;;;;;;20810740;28;20982;-75
2022/07/14 15:08:50;;;;;;;1.70;0.85;;;34.50;79.80;;;;;;20834042;28;20338;-74
2022/07/14 15:18:51;;;;;;;0.50;0.50;;;34.30;79.60;;;;;;20829980;28;20038;-75
2022/07/14 15:28:51;;;;;;;5.10;0.70;;;34.30;78.80;;;;;;20829665;28;20053;-74
2022/07/14 15:49:12;;;;;;;0.65;0.60;;;33.40;78.30;;;;;;20826615;28;20053;-75
2022/07/14 15:59:12;;;;;;;1.33;0.50;;;33.10;75.90;;;;;;20826143;28;20061;-75
2022/07/14 16:09:13;;;;;;;2.47;0.63;;;32.90;77.00;;;;;;20826441;28;20041;-74
2022/07/14 16:19:14;;;;;;;1.85;0.85;;;33.00;76.30;;;;;;20825558;28;20175;-74
2022/07/14 16:29:15;;;;;;;3.42;0.40;;;32.60;76.90;;;;;;20825998;28;20037;-75
2022/07/14 16:39:16;;;;;;;0.77;0.55;;;32.60;75.20;;;;;;20825674;28;20054;-75
2022/07/14 16:49:17;;;;;;;4.00;0.70;;;32.50;76.10;;;;;;20821940;28;20490;-75
2022/07/14 16:59:18;;;;;;;5.47;2.00;;;32.50;79.00;;;;;;20825648;28;20542;-75
2022/07/14 17:09:19;;;;;;;2.00;0.60;;;32.10;78.40;;;;;;20823037;28;20057;-74
2022/07/14 17:19:20;;;;;;;2.65;0.80;;;32.00;79.90;;;;;;20840811;28;20400;-74
2022/07/14 17:29:21;;;;;;;4.25;0.68;;;32.00;82.90;;;;;;20855437;28;20045;-75
2022/07/14 17:39:22;;;;;;;1.13;0.63;;;31.50;82.40;;;;;;20839272;28;20072;-75
2022/07/14 17:49:23;;;;;;;1.33;0.73;;;31.60;82.80;;;;;;20837475;28;20308;-75
2022/07/14 17:59:24;;;;;;;2.00;0.70;;;31.20;83.60;;;;;;20838237;28;20163;-76
2022/07/14 18:09:27;;;;;;;1.08;0.80;;;31.90;83.10;;;;;;20987007;22;20052;-77
2022/07/14 18:19:28;;;;;;;9.57;1.08;;;32.70;82.10;;;;;;21004370;28;20055;-76
2022/07/14 18:29:29;;;;;;;2.72;1.10;;;32.60;82.80;;;;;;20990591;28;20413;-76
2022/07/14 18:39:30;;;;;;;3.53;1.13;;;31.10;85.00;;;;;;21002924;28;20083;-78
2022/07/14 18:49:31;;;;;;;5.68;0.98;;;30.80;86.80;;;;;;21011956;28;20040;-76
2022/07/14 18:59:32;;;;;;;1.60;0.88;;;30.00;87.60;;;;;;20980786;28;20050;-76
2022/07/14 19:09:32;;;;;;;5.38;1.17;;;29.40;90.00;;;;;;21001551;28;20576;-76
2022/07/14 19:19:33;;;;;;;22.73;4.80;;;28.80;91.00;;;;;;20987345;28;20051;-76
2022/07/14 19:29:35;;;;;;;15.05;2.97;;;27.90;93.50;;;;;;20975894;28;20434;-76
2022/07/14 19:39:36;;;;;;;3.83;1.20;;;27.30;93.20;;;;;;20975072;28;20043;-75
2022/07/14 19:49:37;;;;;;;5.10;1.67;;;26.60;94.00;;;;;;20974145;28;20052;-75
2022/07/14 19:59:39;;;;;;;3.40;1.42;;;26.40;94.10;;;;;;20962572;28;20036;-75
2022/07/14 20:09:39;;;;;;;1.20;1.10;;;26.00;94.80;;;;;;20973195;28;20189;-76
2022/07/14 20:19:40;;;;;;;7.90;2.33;;;25.80;95.10;;;;;;20990617;28;20514;-75
2022/07/14 20:40:00;;;;;;;1.15;1.05;;;25.30;97.50;;;;;;20966420;28;20046;-76
2022/07/14 20:50:01;;;;;;;;;;;25.00;97.60;;;;;;20991722;28;20449;-76
2022/07/14 21:00:04;;;;;;;4.07;1.40;;;24.80;97.50;;;;;;20991042;28;19912;-76
2022/07/14 21:10:07;;;;;;;6.47;1.33;;;24.60;97.20;;;;;;20990302;28;20048;-75
2022/07/14 21:20:08;;;;;;;6.25;1.40;;;24.20;98.60;;;;;;20990238;28;20515;-75
2022/07/14 21:30:09;;;;;;;;;;;23.90;99.50;;;;;;20974045;28;20048;-76
2022/07/14 21:40:10;;;;;;;12.93;2.30;;;23.40;99.90;;;;;;20995189;28;20360;-76
2022/07/14 21:50:11;;;;;;;2.13;1.33;;;22.90;99.90;;;;;;20995250;28;20048;-77
2022/07/14 22:00:13;;;;;;;3.87;1.67;;;22.60;99.90;;;;;;21008782;28;20036;-77
2022/07/14 22:10:14;;;;;;;4.85;1.67;;;22.50;99.90;;;;;;21013606;28;20032;-77
2022/07/14 22:20:16;;;;;;;1.75;1.45;;;22.60;99.90;;;;;;21018175;28;20045;-77
2022/07/14 22:30:17;;;;;;;5.00;1.90;;;22.80;99.90;;;;;;21008257;28;20040;-77
2022/07/14 22:40:18;;;;;;;6.47;2.50;;;23.20;99.90;;;;;;21000194;28;20527;-77
2022/07/14 22:50:19;;;;;;;8.30;2.50;;;23.40;99.90;;;;;;20999285;28;20032;-77
2022/07/14 23:00:20;;;;;;;;;;;23.20;99.90;;;;;;20999277;28;20527;-77
2022/07/14 23:10:20;;;;;;;3.13;2.23;;;22.90;99.90;;;;;;20997578;28;19913;-77
2022/07/14 23:20:30;;;;;;;5.50;2.23;;;22.80;99.90;;;;;;20983302;28;20291;-77
2022/07/14 23:30:31;;;;;;;8.13;2.95;;;22.60;99.90;;;;;;20996470;28;20072;-76
2022/07/14 23:40:32;;;;;;;6.73;2.40;;;22.50;99.90;;;;;;20995548;28;20102;-77
2022/07/14 23:50:33;;;;;;;5.13;2.80;;;22.50;99.90;;;;;;20995551;28;20282;-77
